Elko Regional Airport Elko US
ICAO: KEKO
IATA: EKO
Category: Medium
Scheduled Services: Yes

Elevation: 5140 ft
TransAlt. 18000 ft.

Airport Communications:
ASOS:119.275
SALT LAKE CNTR:132.25
CTAF:123
UNICOM:123

KEKO Zoom In..

Runways:

(A) RW 05 length 7214 ft width 150 ft
---- / hdg 53

(B) RW 12 length 2871 ft width 60 ft
---- / hdg 118

(C) RW 23 length 7214 ft width 150 ft
---- / hdg 233

(D) RW 30 length 2871 ft width 60 ft
---- / hdg 298

Location; KEKO
Day. 26 / Time. 12.56 Zulu
* Altimeter: 29.91
* Temperature: 07° c. 44.6°f.
* Wind from: 220° Speed 04 kn.
Dewpoint: 04° c.
Visibility: 10 Statute Miles.
Clouds: Clear (automated report).

KEKO 261256Z AUTO 22004KT 10SM CLR 07/04 A2991 RMK AO2 SLP091 T00670039


Wind From 220°
Speed 04 kn.

 
 
jpsmedia.com for Web Design SOUNDCLOUD worldairports.se 2018   terms of use